createdAt,value
2022-12-07T00:00:34.448Z,24.06
2022-12-07T00:03:05.119Z,24.06
2022-12-07T00:05:35.735Z,24.07
2022-12-07T00:11:12.011Z,24.07
2022-12-07T00:13:42.635Z,24.07
2022-12-07T00:16:19.242Z,24.07
2022-12-07T00:18:50.186Z,24.07
2022-12-07T00:21:25.559Z,24.07
2022-12-07T00:23:56.169Z,24.06
2022-12-07T00:26:30.998Z,24.06
2022-12-07T00:29:07.633Z,24.05
2022-12-07T00:31:40.385Z,24.06
2022-12-07T00:34:12.975Z,24.04
2022-12-07T00:36:44.506Z,24.04
2022-12-07T00:39:14.679Z,24.05
2022-12-07T00:41:45.231Z,24.05
2022-12-07T00:44:15.437Z,24.03
2022-12-07T00:46:46.771Z,24.02
2022-12-07T00:49:17.083Z,24.02
2022-12-07T00:51:47.723Z,24.01
2022-12-07T00:54:18.369Z,24.00
2022-12-07T00:56:48.309Z,23.99
2022-12-07T00:59:18.618Z,23.99
2022-12-07T01:01:48.742Z,23.97
2022-12-07T01:04:21.432Z,23.96
2022-12-07T01:06:52.061Z,23.94
2022-12-07T01:09:25.462Z,23.94
2022-12-07T01:11:56.526Z,23.93
2022-12-07T01:14:26.798Z,23.93
2022-12-07T01:16:58.634Z,23.92
2022-12-07T01:19:29.235Z,23.91
2022-12-07T01:21:59.231Z,23.89
2022-12-07T01:24:31.113Z,23.88
2022-12-07T01:27:01.529Z,23.87
2022-12-07T01:29:34.408Z,23.87
2022-12-07T01:32:07.839Z,23.86
2022-12-07T01:34:38.212Z,23.84
2022-12-07T01:37:08.495Z,23.83
2022-12-07T01:39:38.642Z,23.82
2022-12-07T01:42:10.409Z,23.82
2022-12-07T01:45:16.259Z,23.82
2022-12-07T01:47:47.823Z,23.80
2022-12-07T01:50:19.579Z,23.79
2022-12-07T01:52:50.574Z,23.78
2022-12-07T01:55:21.310Z,23.77
2022-12-07T01:57:56.923Z,23.75
2022-12-07T02:00:32.247Z,23.74
2022-12-07T02:03:20.087Z,23.73
2022-12-07T02:05:51.640Z,23.74
2022-12-07T02:08:22.875Z,23.73
2022-12-07T02:10:53.824Z,23.70
2022-12-07T02:13:26.784Z,23.71
2022-12-07T02:16:08.476Z,23.67
2022-12-07T02:18:56.399Z,23.66
2022-12-07T02:21:43.742Z,23.67
2022-12-07T02:24:32.318Z,23.65
2022-12-07T02:27:39.892Z,23.65
2022-12-07T02:30:17.664Z,23.63
2022-12-07T02:33:02.130Z,23.62
2022-12-07T02:35:53.146Z,23.60
2022-12-07T02:38:43.096Z,23.59
2022-12-07T02:41:15.875Z,23.58
2022-12-07T02:43:50.900Z,23.57
2022-12-07T02:46:38.325Z,23.56
2022-12-07T02:49:08.852Z,23.54
2022-12-07T02:51:44.584Z,23.54
2022-12-07T02:54:20.769Z,23.52
2022-12-07T02:56:59.616Z,23.52
2022-12-07T02:59:52.233Z,23.50
2022-12-07T03:02:51.579Z,23.50
2022-12-07T03:05:46.341Z,23.52
2022-12-07T03:08:28.265Z,23.54
2022-12-07T03:11:01.077Z,23.58
2022-12-07T03:13:46.348Z,23.59
2022-12-07T03:16:21.385Z,23.62
2022-12-07T03:19:01.590Z,23.65
2022-12-07T03:21:46.117Z,23.66
2022-12-07T03:24:12.112Z,23.70
2022-12-07T03:26:45.743Z,23.73
2022-12-07T03:29:25.192Z,23.75
2022-12-07T03:31:58.071Z,23.79
2022-12-07T03:34:43.073Z,23.82
2022-12-07T03:37:16.042Z,23.86
2022-12-07T03:39:52.971Z,23.89
2022-12-07T03:42:25.043Z,23.93
2022-12-07T03:44:55.152Z,23.96
2022-12-07T03:47:39.757Z,24.00
2022-12-07T03:50:12.743Z,24.01
2022-12-07T03:53:03.905Z,24.01
2022-12-07T03:55:38.752Z,24.00
2022-12-07T03:58:09.640Z,24.00
2022-12-07T04:00:39.669Z,24.01
2022-12-07T04:03:10.049Z,24.00
2022-12-07T04:05:40.351Z,24.01
2022-12-07T04:08:10.656Z,24.00
2022-12-07T04:10:41.224Z,24.00
2022-12-07T04:13:11.260Z,24.01
2022-12-07T04:15:41.399Z,24.01
2022-12-07T04:18:13.226Z,24.01
2022-12-07T04:20:43.344Z,24.00
2022-12-07T04:23:13.723Z,24.00
2022-12-07T04:25:47.100Z,24.00
2022-12-07T04:28:19.934Z,23.98
2022-12-07T04:30:50.738Z,23.97
2022-12-07T04:33:21.532Z,23.97
2022-12-07T04:35:52.682Z,23.95
2022-12-07T04:38:24.070Z,23.94
2022-12-07T04:40:54.946Z,23.93
2022-12-07T04:43:25.377Z,23.93
2022-12-07T04:45:55.689Z,23.93
2022-12-07T04:48:25.868Z,23.91
2022-12-07T04:50:55.925Z,23.90
2022-12-07T04:53:26.437Z,23.88
2022-12-07T04:55:57.755Z,23.88
2022-12-07T05:00:52.575Z,23.91
2022-12-07T05:03:24.466Z,23.84
2022-12-07T05:05:54.665Z,23.83
2022-12-07T05:08:28.581Z,23.82
2022-12-07T05:10:58.878Z,23.80
2022-12-07T05:13:29.058Z,23.80
2022-12-07T05:15:59.757Z,23.79
2022-12-07T05:18:30.401Z,23.77
2022-12-07T05:21:00.532Z,23.77
2022-12-07T05:23:30.909Z,23.76
2022-12-07T05:26:01.249Z,23.74
2022-12-07T05:28:31.345Z,23.74
2022-12-07T05:31:01.701Z,23.72
2022-12-07T05:35:59.823Z,23.75
2022-12-07T05:38:30.393Z,23.68
2022-12-07T05:41:06.280Z,23.65
2022-12-07T05:43:36.668Z,23.65
2022-12-07T05:46:07.528Z,23.65
2022-12-07T05:48:38.427Z,23.64
2022-12-07T05:51:08.443Z,23.63
2022-12-07T05:53:38.668Z,23.62
2022-12-07T05:56:09.816Z,23.61
2022-12-07T05:58:57.234Z,23.59
2022-12-07T06:01:28.760Z,23.57
2022-12-07T06:04:00.824Z,23.58
2022-12-07T06:06:30.901Z,23.55
2022-12-07T06:09:01.003Z,23.54
2022-12-07T06:11:38.656Z,23.54
2022-12-07T06:14:08.992Z,23.53
2022-12-07T06:16:39.360Z,23.51
2022-12-07T06:19:09.479Z,23.48
2022-12-07T06:21:39.694Z,23.48
2022-12-07T06:24:10.032Z,23.46
2022-12-07T06:26:40.595Z,23.45
2022-12-07T06:29:10.568Z,23.43
2022-12-07T06:31:40.837Z,23.42
2022-12-07T06:34:13.390Z,23.41
2022-12-07T06:36:43.536Z,23.39
2022-12-07T06:39:14.868Z,23.37
2022-12-07T06:41:45.101Z,23.36
2022-12-07T06:44:15.206Z,23.35
2022-12-07T06:46:45.573Z,23.33
2022-12-07T06:49:15.683Z,23.33
2022-12-07T06:51:48.709Z,23.31
2022-12-07T06:54:18.162Z,23.31
2022-12-07T06:56:48.586Z,23.30
2022-12-07T06:59:18.914Z,23.29
2022-12-07T07:01:49.265Z,23.26
2022-12-07T07:04:19.527Z,23.26
2022-12-07T07:06:50.649Z,23.22
2022-12-07T07:09:22.505Z,23.22
2022-12-07T07:11:53.473Z,23.20
2022-12-07T07:14:24.223Z,23.19
2022-12-07T07:17:15.913Z,23.17
2022-12-07T07:19:46.208Z,23.18
2022-12-07T07:22:36.647Z,23.17
2022-12-07T07:25:07.582Z,23.16
2022-12-07T07:27:41.062Z,23.15
2022-12-07T07:30:11.803Z,23.10
2022-12-07T07:32:42.328Z,23.10
2022-12-07T07:35:12.519Z,23.10
2022-12-07T07:37:42.828Z,23.08
2022-12-07T07:40:13.801Z,23.07
2022-12-07T07:42:43.957Z,23.03
2022-12-07T07:45:14.559Z,23.00
2022-12-07T07:47:44.935Z,23.02
2022-12-07T07:50:15.381Z,23.01
2022-12-07T07:52:45.506Z,22.98
2022-12-07T07:55:26.010Z,22.99
2022-12-07T07:57:56.670Z,22.97
2022-12-07T08:00:29.904Z,22.97
2022-12-07T08:02:59.744Z,22.94
2022-12-07T08:05:33.918Z,22.93
2022-12-07T08:08:03.967Z,22.92
2022-12-07T08:10:34.479Z,22.91
2022-12-07T08:13:13.542Z,22.88
2022-12-07T08:15:45.289Z,22.86
2022-12-07T08:18:15.628Z,22.85
2022-12-07T08:20:45.777Z,22.84
2022-12-07T08:23:16.113Z,22.83
2022-12-07T08:25:48.683Z,22.83
2022-12-07T08:28:19.119Z,22.81
2022-12-07T08:30:49.427Z,22.82
2022-12-07T08:33:19.383Z,22.79
2022-12-07T08:35:50.301Z,22.76
2022-12-07T08:38:20.438Z,22.75
2022-12-07T08:40:58.024Z,22.76
2022-12-07T08:43:28.923Z,22.73
2022-12-07T08:46:16.864Z,22.72
2022-12-07T08:48:50.393Z,22.66
2022-12-07T08:51:22.176Z,22.69
2022-12-07T08:53:52.965Z,22.69
2022-12-07T08:56:23.236Z,22.67
2022-12-07T08:58:54.312Z,22.67
2022-12-07T09:01:26.125Z,22.64
2022-12-07T09:03:56.624Z,22.64
2022-12-07T09:06:27.132Z,22.63
2022-12-07T09:08:58.875Z,22.63
2022-12-07T09:11:29.306Z,22.61
2022-12-07T09:13:59.521Z,22.60
2022-12-07T09:16:32.480Z,22.59
2022-12-07T09:19:02.003Z,22.59
2022-12-07T09:21:32.644Z,22.57
2022-12-07T09:24:05.218Z,22.55
2022-12-07T09:26:35.313Z,22.55
2022-12-07T09:29:06.996Z,22.54
2022-12-07T09:31:40.534Z,22.51
2022-12-07T09:34:10.096Z,22.51
2022-12-07T09:36:40.243Z,22.50
2022-12-07T09:39:10.566Z,22.51
2022-12-07T09:41:44.625Z,22.48
2022-12-07T09:44:17.461Z,22.46
2022-12-07T09:46:47.770Z,22.45
2022-12-07T09:49:26.002Z,22.43
2022-12-07T09:52:12.773Z,22.40
2022-12-07T09:54:45.066Z,22.39
2022-12-07T09:57:15.389Z,22.39
2022-12-07T09:59:45.518Z,22.40
2022-12-07T10:02:25.179Z,22.38
2022-12-07T10:04:56.216Z,22.36
2022-12-07T10:07:26.567Z,22.34
2022-12-07T10:09:57.041Z,22.33
2022-12-07T10:12:27.567Z,22.33
2022-12-07T10:15:07.739Z,22.31
2022-12-07T10:17:45.761Z,22.30
2022-12-07T10:20:18.200Z,22.30
2022-12-07T10:23:04.360Z,22.31
2022-12-07T10:25:36.186Z,22.29
2022-12-07T10:28:11.929Z,22.29
2022-12-07T10:30:58.157Z,22.27
2022-12-07T10:33:35.931Z,22.25
2022-12-07T10:36:20.361Z,22.25
2022-12-07T10:38:52.521Z,22.24
2022-12-07T10:41:23.476Z,22.21
2022-12-07T10:43:56.093Z,22.22
2022-12-07T10:46:47.611Z,22.20
2022-12-07T10:49:35.182Z,22.20
2022-12-07T10:52:11.084Z,22.18
2022-12-07T10:54:46.731Z,22.17
2022-12-07T10:57:28.088Z,22.16
2022-12-07T11:00:00.958Z,22.14
2022-12-07T11:02:36.993Z,22.14
2022-12-07T11:05:19.135Z,22.12
2022-12-07T11:08:19.087Z,22.10
2022-12-07T11:11:11.769Z,22.10
2022-12-07T11:14:08.561Z,22.08
2022-12-07T11:16:53.216Z,22.07
2022-12-07T11:19:38.646Z,22.06
2022-12-07T11:22:15.950Z,22.06
2022-12-07T11:24:54.696Z,22.05
2022-12-07T11:27:35.765Z,22.04
2022-12-07T11:30:26.655Z,22.03
2022-12-07T11:33:14.626Z,22.02
2022-12-07T11:36:05.565Z,22.02
2022-12-07T11:38:38.323Z,22.02
2022-12-07T11:41:17.778Z,22.04
2022-12-07T11:44:05.373Z,22.06
2022-12-07T11:46:59.208Z,22.08
2022-12-07T11:49:51.247Z,22.12
2022-12-07T11:52:44.203Z,22.15
2022-12-07T11:55:19.804Z,22.23
2022-12-07T11:57:50.355Z,22.30
2022-12-07T12:00:21.156Z,22.35
2022-12-07T12:03:05.347Z,22.40
2022-12-07T12:05:40.133Z,22.44
2022-12-07T12:11:05.473Z,22.59
2022-12-07T12:16:56.062Z,22.74
2022-12-07T12:19:35.126Z,22.80
2022-12-07T12:22:11.028Z,22.88
2022-12-07T12:24:46.234Z,22.97
2022-12-07T12:27:28.733Z,23.04
2022-12-07T12:30:00.620Z,23.10
2022-12-07T12:32:39.710Z,23.15
2022-12-07T12:35:34.699Z,23.21
2022-12-07T12:38:32.948Z,23.30
2022-12-07T12:41:03.510Z,23.38
2022-12-07T12:43:51.087Z,23.43
2022-12-07T12:46:37.124Z,23.48
2022-12-07T12:49:25.305Z,23.53
2022-12-07T12:52:12.656Z,23.57
2022-12-07T12:54:44.186Z,23.61
2022-12-07T12:57:16.665Z,23.66
2022-12-07T12:59:56.832Z,23.70
2022-12-07T13:02:38.314Z,23.74
2022-12-07T13:05:14.380Z,23.79
2022-12-07T13:07:56.159Z,23.83
2022-12-07T13:10:32.952Z,23.88
2022-12-07T13:13:17.492Z,23.91
2022-12-07T13:15:51.600Z,23.97
2022-12-07T13:18:36.739Z,24.01
2022-12-07T13:21:07.702Z,24.05
2022-12-07T13:23:42.990Z,24.08
2022-12-07T13:26:25.062Z,24.15
2022-12-07T13:29:14.694Z,24.18
2022-12-07T13:31:46.490Z,24.20
2022-12-07T13:34:38.271Z,24.25
2022-12-07T13:37:38.401Z,24.29
2022-12-07T13:40:21.954Z,24.34
2022-12-07T13:42:53.910Z,24.38
2022-12-07T13:45:51.067Z,24.44
2022-12-07T13:48:28.087Z,24.47
2022-12-07T13:50:58.856Z,24.51
2022-12-07T13:53:30.180Z,24.55
2022-12-07T13:56:03.112Z,24.58
2022-12-07T13:58:34.208Z,24.63
2022-12-07T14:01:04.209Z,24.66
2022-12-07T14:03:36.396Z,24.70
2022-12-07T14:06:11.729Z,24.74
2022-12-07T14:08:42.112Z,24.77
2022-12-07T14:11:15.058Z,24.79
2022-12-07T14:13:56.743Z,24.76
2022-12-07T14:16:29.932Z,24.76
2022-12-07T14:19:01.095Z,24.78
2022-12-07T14:21:32.444Z,24.77
2022-12-07T14:24:14.704Z,24.77
2022-12-07T14:26:44.638Z,24.76
2022-12-07T14:29:31.897Z,24.73
2022-12-07T14:32:03.919Z,24.73
2022-12-07T14:34:33.899Z,24.74
2022-12-07T14:37:04.455Z,24.72
2022-12-07T14:39:34.802Z,24.71
2022-12-07T14:42:05.149Z,24.71
2022-12-07T14:44:36.121Z,24.70
2022-12-07T14:49:38.058Z,24.70
2022-12-07T14:54:39.983Z,24.69
2022-12-07T14:57:12.163Z,24.69
2022-12-07T14:59:45.299Z,24.69
2022-12-07T15:02:15.751Z,24.68
2022-12-07T15:04:45.793Z,24.67
2022-12-07T15:07:21.999Z,24.66
2022-12-07T15:09:52.874Z,24.65
2022-12-07T15:12:23.978Z,24.65
2022-12-07T15:14:54.791Z,24.63
2022-12-07T15:17:31.621Z,24.61
2022-12-07T15:19:57.732Z,24.62
2022-12-07T15:22:33.647Z,24.61
2022-12-07T15:25:01.377Z,24.59
2022-12-07T15:27:31.908Z,24.59
2022-12-07T15:30:01.977Z,24.58
2022-12-07T15:32:32.253Z,24.57
2022-12-07T15:35:02.922Z,24.57
2022-12-07T15:37:33.207Z,24.55
2022-12-07T15:40:07.702Z,24.54
2022-12-07T15:42:35.156Z,24.52
2022-12-07T15:45:08.337Z,24.52
2022-12-07T15:48:10.290Z,24.50
2022-12-07T15:50:13.721Z,24.49
2022-12-07T15:52:46.095Z,24.49
2022-12-07T15:55:15.631Z,24.46
2022-12-07T15:57:45.889Z,24.46
2022-12-07T16:00:16.933Z,24.44
2022-12-07T16:02:47.136Z,24.43
2022-12-07T16:05:17.390Z,24.42
2022-12-07T16:07:48.600Z,24.40
2022-12-07T16:10:19.162Z,24.39
2022-12-07T16:12:49.223Z,24.38
2022-12-07T16:15:24.240Z,24.37
2022-12-07T16:17:51.370Z,24.37
2022-12-07T16:20:21.879Z,24.36
2022-12-07T16:22:55.204Z,24.33
2022-12-07T16:25:26.576Z,24.30
2022-12-07T16:27:57.313Z,24.28
2022-12-07T16:30:27.645Z,24.27
2022-12-07T16:33:02.417Z,24.26
2022-12-07T16:35:30.068Z,24.25
2022-12-07T16:38:00.097Z,24.24
2022-12-07T16:40:30.116Z,24.23
2022-12-07T16:43:00.867Z,24.22
2022-12-07T16:45:31.062Z,24.21
2022-12-07T16:48:01.010Z,24.19
2022-12-07T16:50:31.288Z,24.19
2022-12-07T16:53:01.650Z,24.17
2022-12-07T16:55:31.608Z,24.16
2022-12-07T16:58:01.869Z,24.14
2022-12-07T17:00:32.055Z,24.13
2022-12-07T17:03:02.391Z,24.13
2022-12-07T17:05:32.860Z,24.13
2022-12-07T17:08:04.448Z,24.09
2022-12-07T17:10:34.500Z,24.08
2022-12-07T17:13:06.345Z,24.07
2022-12-07T17:15:36.487Z,24.04
2022-12-07T17:18:06.609Z,24.06
2022-12-07T17:20:36.810Z,24.04
2022-12-07T17:23:06.735Z,24.03
2022-12-07T17:25:37.154Z,24.02
2022-12-07T17:28:07.720Z,24.02
2022-12-07T17:30:37.839Z,24.01
2022-12-07T17:33:07.666Z,24.01
2022-12-07T17:35:37.779Z,24.00
2022-12-07T17:38:07.862Z,23.98
2022-12-07T17:40:37.975Z,23.96
2022-12-07T17:43:08.045Z,23.95
2022-12-07T17:45:39.548Z,23.93
2022-12-07T17:48:09.696Z,23.93
2022-12-07T17:50:58.782Z,23.92
2022-12-07T17:53:30.006Z,23.92
2022-12-07T17:58:31.835Z,23.88
2022-12-07T18:01:02.072Z,23.88
2022-12-07T18:03:32.123Z,23.87
2022-12-07T18:06:03.410Z,23.86
2022-12-07T18:08:34.961Z,23.85
2022-12-07T18:11:05.977Z,23.84
2022-12-07T18:13:39.175Z,23.83
2022-12-07T18:16:11.257Z,23.81
2022-12-07T18:18:41.234Z,23.81
2022-12-07T18:21:13.709Z,23.81
2022-12-07T18:23:44.320Z,23.79
2022-12-07T18:26:14.806Z,23.79
2022-12-07T18:28:45.059Z,23.77
2022-12-07T18:31:16.157Z,23.77
2022-12-07T18:33:47.698Z,23.76
2022-12-07T18:36:18.093Z,23.75
2022-12-07T18:38:48.186Z,23.73
2022-12-07T18:41:18.130Z,23.73
2022-12-07T18:43:48.100Z,23.72
2022-12-07T18:46:19.922Z,23.71
2022-12-07T18:48:51.284Z,23.70
2022-12-07T18:51:21.654Z,23.68
2022-12-07T18:53:53.054Z,23.68
2022-12-07T18:56:24.064Z,23.68
2022-12-07T18:59:12.647Z,23.65
2022-12-07T19:01:43.097Z,23.65
2022-12-07T19:04:13.488Z,23.65
2022-12-07T19:06:46.950Z,23.64
2022-12-07T19:09:17.228Z,23.63
2022-12-07T19:11:53.367Z,23.63
2022-12-07T19:14:29.931Z,23.62
2022-12-07T19:17:03.232Z,23.61
2022-12-07T19:19:54.365Z,23.61
2022-12-07T19:22:25.977Z,23.59
2022-12-07T19:24:56.605Z,23.57
2022-12-07T19:27:28.186Z,23.57
2022-12-07T19:29:58.833Z,23.57
2022-12-07T19:32:29.571Z,23.56
2022-12-07T19:35:00.035Z,23.55
2022-12-07T19:37:30.851Z,23.54
2022-12-07T19:40:00.822Z,23.53
2022-12-07T19:42:32.304Z,23.52
2022-12-07T19:45:03.219Z,23.51
2022-12-07T19:47:33.639Z,23.50
2022-12-07T19:50:04.175Z,23.49
2022-12-07T19:52:36.868Z,23.48
2022-12-07T19:55:08.084Z,23.48
2022-12-07T19:57:38.195Z,23.47
2022-12-07T20:00:10.809Z,23.46
2022-12-07T20:02:42.137Z,23.46
2022-12-07T20:05:13.014Z,23.43
2022-12-07T20:07:43.690Z,23.43
2022-12-07T20:10:14.042Z,23.42
2022-12-07T20:12:48.458Z,23.42
2022-12-07T20:15:18.408Z,23.41
2022-12-07T20:17:49.176Z,23.39
2022-12-07T20:20:19.166Z,23.40
2022-12-07T20:22:50.272Z,23.42
2022-12-07T20:25:20.846Z,23.43
2022-12-07T20:27:51.371Z,23.45
2022-12-07T20:30:21.573Z,23.48
2022-12-07T20:32:52.442Z,23.51
2022-12-07T20:35:22.454Z,23.53
2022-12-07T20:37:52.572Z,23.56
2022-12-07T20:40:23.695Z,23.58
2022-12-07T20:42:54.675Z,23.59
2022-12-07T20:45:26.015Z,23.65
2022-12-07T20:47:57.204Z,23.68
2022-12-07T20:50:27.931Z,23.72
2022-12-07T20:53:00.551Z,23.74
2022-12-07T20:55:29.856Z,23.79
2022-12-07T20:58:00.047Z,23.83
2022-12-07T21:00:30.441Z,23.88
2022-12-07T21:03:00.612Z,23.92
2022-12-07T21:05:30.714Z,23.92
2022-12-07T21:08:00.692Z,23.93
2022-12-07T21:10:31.074Z,23.92
2022-12-07T21:13:01.023Z,23.92
2022-12-07T21:15:31.148Z,23.89
2022-12-07T21:18:07.078Z,23.92
2022-12-07T21:20:33.176Z,23.92
2022-12-07T21:23:03.225Z,23.93
2022-12-07T21:25:33.206Z,23.94
2022-12-07T21:28:03.320Z,23.94
2022-12-07T21:30:45.612Z,23.93
2022-12-07T21:33:05.416Z,23.94
2022-12-07T21:35:37.657Z,23.95
2022-12-07T21:38:07.883Z,23.94
2022-12-07T21:40:40.743Z,23.94
2022-12-07T21:43:10.520Z,23.93
2022-12-07T21:45:40.473Z,23.93
2022-12-07T21:48:11.307Z,23.94
2022-12-07T21:50:41.542Z,23.92
2022-12-07T21:53:11.403Z,23.92
2022-12-07T21:55:44.953Z,23.91
2022-12-07T21:58:15.015Z,23.91
2022-12-07T22:00:45.019Z,23.89
2022-12-07T22:03:15.247Z,23.90
2022-12-07T22:05:45.551Z,23.90
2022-12-07T22:08:15.890Z,23.88
2022-12-07T22:10:46.104Z,23.88
2022-12-07T22:13:16.348Z,23.86
2022-12-07T22:15:46.442Z,23.85
2022-12-07T22:18:16.753Z,23.85
2022-12-07T22:20:46.718Z,23.84
2022-12-07T22:23:16.724Z,23.84
2022-12-07T22:25:47.015Z,23.83
2022-12-07T22:28:17.176Z,23.82
2022-12-07T22:30:47.437Z,23.81
2022-12-07T22:33:18.337Z,23.80
2022-12-07T22:35:49.508Z,23.79
2022-12-07T22:38:19.504Z,23.79
2022-12-07T22:40:49.650Z,23.78
2022-12-07T22:43:19.883Z,23.76
2022-12-07T22:45:58.750Z,23.76
2022-12-07T22:48:29.140Z,23.76
2022-12-07T22:50:59.431Z,23.75
2022-12-07T22:53:29.740Z,23.74
2022-12-07T22:55:59.741Z,23.73
2022-12-07T22:58:29.843Z,23.73
2022-12-07T23:01:00.026Z,23.71
2022-12-07T23:03:30.179Z,23.71
2022-12-07T23:06:00.688Z,23.68
2022-12-07T23:08:30.862Z,23.68
2022-12-07T23:11:01.247Z,23.67
2022-12-07T23:13:37.253Z,23.67
2022-12-07T23:16:12.989Z,23.65
2022-12-07T23:18:43.757Z,23.64
2022-12-07T23:21:13.900Z,23.64
2022-12-07T23:23:44.374Z,23.63
2022-12-07T23:26:14.198Z,23.62
2022-12-07T23:28:44.199Z,23.61
2022-12-07T23:31:15.750Z,23.60
2022-12-07T23:33:45.939Z,23.59
2022-12-07T23:36:18.581Z,23.59
2022-12-07T23:38:50.907Z,23.57
2022-12-07T23:41:22.204Z,23.57
2022-12-07T23:43:52.783Z,23.55
2022-12-07T23:46:24.175Z,23.55
2022-12-07T23:48:57.187Z,23.54
2022-12-07T23:51:27.759Z,23.52
2022-12-07T23:53:58.538Z,23.51
2022-12-07T23:56:29.899Z,23.52
2022-12-07T23:59:00.145Z,23.50
